Time;durP1;ratioP1;P1;durP2;ratioP2;P2;SDS_P1;SDS_P2;PMS_P1;PMS_P2;Temp;Humidity;BMP_temperature;BMP_pressure;BME280_temperature;BME280_humidity;BME280_pressure;Samples;Min_cycle;Max_cycle;Signal;HPM_P1;HPM_P2
2022/03/08 04:01:24;;;;;;;17.63;15.10;;;-4.60;99.90;;;;;;5413029;23;20242;-75
2022/03/08 04:03:50;;;;;;;21.57;15.70;;;-4.50;99.90;;;;;;4935124;29;20186;-75
2022/03/08 04:06:16;;;;;;;19.77;14.70;;;-4.50;99.90;;;;;;4934107;29;20647;-75
2022/03/08 04:08:41;;;;;;;18.87;14.97;;;-4.40;99.90;;;;;;4934621;29;20269;-75
2022/03/08 04:11:07;;;;;;;19.10;15.40;;;-4.40;99.90;;;;;;4933854;29;20224;-74
2022/03/08 04:13:33;;;;;;;24.50;16.43;;;-4.40;99.90;;;;;;4935021;29;20626;-74
2022/03/08 04:15:59;;;;;;;22.00;16.83;;;-4.50;99.90;;;;;;4955184;23;20230;-75
2022/03/08 04:18:24;;;;;;;23.30;16.10;;;-4.60;99.90;;;;;;4932057;29;20742;-75
2022/03/08 04:20:50;;;;;;;25.40;17.50;;;-4.60;99.90;;;;;;4934754;29;20186;-75
2022/03/08 04:23:16;;;;;;;26.63;17.83;;;-4.40;99.90;;;;;;4934740;29;20230;-76
2022/03/08 04:25:42;;;;;;;26.17;17.43;;;-4.50;99.90;;;;;;4933546;29;20221;-75
2022/03/08 04:28:07;;;;;;;29.70;17.80;;;-4.40;99.90;;;;;;4931579;29;20614;-73
2022/03/08 04:30:33;;;;;;;26.00;17.03;;;-4.50;99.90;;;;;;4914778;29;20277;-75
2022/03/08 04:32:59;;;;;;;25.87;18.30;;;-4.60;99.90;;;;;;4914346;29;20254;-76
2022/03/08 04:35:25;;;;;;;27.20;18.90;;;-4.70;99.90;;;;;;4915646;29;20199;-75
2022/03/08 04:37:52;;;;;;;23.10;17.57;;;-4.70;99.90;;;;;;4914261;29;20222;-76
2022/03/08 04:40:18;;;;;;;27.13;17.33;;;-4.70;99.90;;;;;;4920337;29;20190;-76
2022/03/08 04:42:44;;;;;;;26.70;18.20;;;-4.60;99.90;;;;;;4933066;29;20350;-76
2022/03/08 04:45:12;;;;;;;26.73;17.83;;;-4.60;99.90;;;;;;4933071;29;20663;-76
2022/03/08 04:47:38;;;;;;;24.83;16.07;;;-4.50;99.90;;;;;;4933868;29;20196;-76
2022/03/08 04:50:06;;;;;;;26.93;17.17;;;-4.60;99.90;;;;;;4933204;29;20214;-76
2022/03/08 04:52:31;;;;;;;23.43;17.87;;;-4.70;99.90;;;;;;4934248;29;20217;-76
2022/03/08 04:54:57;;;;;;;25.80;16.97;;;-4.70;99.90;;;;;;4926320;29;20237;-76
2022/03/08 04:57:23;;;;;;;21.70;16.07;;;-4.70;99.90;;;;;;4913633;29;20598;-76
2022/03/08 04:59:49;;;;;;;19.40;16.07;;;-4.70;99.90;;;;;;4915088;29;20277;-76
2022/03/08 05:02:14;;;;;;;20.13;15.77;;;-4.70;99.90;;;;;;4913810;29;20689;-75
2022/03/08 05:04:40;;;;;;;17.47;15.20;;;-4.70;99.90;;;;;;4914497;29;20210;-75
2022/03/08 05:07:06;;;;;;;20.37;14.73;;;-4.80;99.90;;;;;;4914066;29;20694;-74
2022/03/08 05:09:32;;;;;;;23.07;15.10;;;-4.80;99.90;;;;;;4914469;29;20207;-76
2022/03/08 05:11:58;;;;;;;19.10;15.37;;;-4.70;99.90;;;;;;4919043;29;20187;-76
2022/03/08 05:14:24;;;;;;;17.07;14.13;;;-4.70;99.90;;;;;;4913672;29;20219;-76
2022/03/08 05:16:51;;;;;;;16.33;14.23;;;-4.80;99.90;;;;;;4913794;29;20183;-76
2022/03/08 05:19:17;;;;;;;19.43;15.13;;;-4.80;99.90;;;;;;4911450;29;20191;-75
2022/03/08 05:21:43;;;;;;;17.43;13.57;;;-4.80;99.90;;;;;;4907125;29;20674;-75
2022/03/08 05:24:08;;;;;;;17.20;14.03;;;-4.80;99.90;;;;;;4908577;29;20659;-74
2022/03/08 05:26:37;;;;;;;19.27;14.27;;;-4.80;99.90;;;;;;4911446;29;20191;-73
2022/03/08 05:29:07;;;;;;;15.47;13.87;;;-4.80;99.90;;;;;;4913366;29;20266;-75
2022/03/08 05:31:34;;;;;;;17.93;13.67;;;-4.70;99.90;;;;;;4903576;29;20183;-74
2022/03/08 05:34:00;;;;;;;19.97;14.73;;;-4.70;99.90;;;;;;4914532;29;20191;-76
2022/03/08 05:36:26;;;;;;;19.90;14.20;;;-4.70;99.90;;;;;;4914214;29;20187;-75
2022/03/08 05:38:52;;;;;;;21.50;15.83;;;-4.80;99.90;;;;;;4912954;29;20198;-75
2022/03/08 05:41:18;;;;;;;17.70;14.73;;;-4.80;99.90;;;;;;4914407;29;20223;-75
2022/03/08 05:43:44;;;;;;;20.57;15.03;;;-4.80;99.90;;;;;;4914615;29;20217;-74
2022/03/08 05:46:11;;;;;;;23.20;15.00;;;-4.80;99.90;;;;;;4915723;29;20211;-74
2022/03/08 05:48:36;;;;;;;20.93;14.87;;;-4.80;99.90;;;;;;4914950;29;20219;-74
2022/03/08 05:51:03;;;;;;;16.53;13.43;;;-4.70;99.90;;;;;;4914036;29;20187;-75
2022/03/08 05:53:29;;;;;;;17.87;13.57;;;-4.70;99.90;;;;;;4915324;29;20222;-74
2022/03/08 05:55:55;;;;;;;17.13;14.23;;;-4.60;99.90;;;;;;4933660;29;20242;-74
2022/03/08 05:58:21;;;;;;;18.47;15.03;;;-4.50;99.90;;;;;;4932053;29;20213;-74
2022/03/08 06:00:47;;;;;;;18.13;14.67;;;-4.40;99.90;;;;;;4928452;29;20555;-74
2022/03/08 06:03:13;;;;;;;20.33;15.20;;;-4.40;99.90;;;;;;4928335;29;20214;-74
2022/03/08 06:05:39;;;;;;;18.53;15.40;;;-4.50;99.90;;;;;;4932167;29;20289;-74
2022/03/08 06:08:05;;;;;;;19.87;15.90;;;-4.30;99.90;;;;;;4928474;29;20265;-74
2022/03/08 06:10:32;;;;;;;21.03;14.43;;;-4.30;99.90;;;;;;4914331;29;20638;-75
2022/03/08 06:12:58;;;;;;;17.83;14.53;;;-4.40;99.90;;;;;;4912827;29;20286;-74
2022/03/08 06:15:23;;;;;;;17.50;14.20;;;-4.30;99.90;;;;;;4914099;29;20317;-75
2022/03/08 06:17:49;;;;;;;18.13;14.53;;;-4.30;99.90;;;;;;4914898;29;20191;-77
2022/03/08 06:20:15;;;;;;;17.87;15.17;;;-4.30;99.90;;;;;;4913673;29;20191;-77
2022/03/08 06:22:41;;;;;;;21.37;14.63;;;-4.20;99.90;;;;;;4919559;29;20279;-77
2022/03/08 06:25:07;;;;;;;18.40;15.03;;;-4.20;99.90;;;;;;4933422;29;20225;-77
2022/03/08 06:27:33;;;;;;;22.70;15.73;;;-4.10;99.90;;;;;;4932167;29;20182;-76
2022/03/08 06:29:59;;;;;;;21.63;15.60;;;-4.00;99.90;;;;;;4928806;29;20710;-77
2022/03/08 06:32:24;;;;;;;23.43;16.33;;;-3.90;99.90;;;;;;4919231;29;20182;-77
2022/03/08 06:34:51;;;;;;;19.60;15.97;;;-3.70;99.90;;;;;;4918770;29;20203;-77
2022/03/08 06:37:18;;;;;;;19.23;16.13;;;-3.60;99.90;;;;;;4919367;29;20175;-77
2022/03/08 06:39:47;;;;;;;17.80;15.50;;;-3.50;99.90;;;;;;4919410;29;20194;-78
2022/03/08 06:42:13;;;;;;;24.00;15.37;;;-3.40;99.90;;;;;;4918988;29;20219;-79
2022/03/08 06:44:39;;;;;;;26.70;16.60;;;-3.40;99.90;;;;;;4917974;29;20207;-77
2022/03/08 06:47:06;;;;;;;21.53;15.17;;;-3.30;99.90;;;;;;4918832;29;20273;-78
2022/03/08 06:49:33;;;;;;;25.40;15.30;;;-3.20;99.90;;;;;;4918096;29;20221;-77
2022/03/08 06:52:00;;;;;;;20.77;15.83;;;-3.10;99.90;;;;;;4917728;29;20175;-77
2022/03/08 06:54:25;;;;;;;25.57;16.13;;;-3.00;99.90;;;;;;4917394;29;20255;-77
2022/03/08 06:56:51;;;;;;;33.83;15.97;;;-2.90;99.90;;;;;;4917365;29;20187;-77
2022/03/08 06:59:17;;;;;;;26.63;16.30;;;-2.60;99.90;;;;;;4917588;29;20722;-77
2022/03/08 07:01:43;;;;;;;26.10;16.70;;;-2.50;99.90;;;;;;4932353;29;20329;-78
2022/03/08 07:04:09;;;;;;;21.30;16.80;;;-2.30;99.90;;;;;;4916776;29;20209;-76
2022/03/08 07:06:35;;;;;;;26.73;17.43;;;-2.10;99.90;;;;;;4917168;29;20655;-77
2022/03/08 07:09:00;;;;;;;25.23;18.03;;;-1.80;99.90;;;;;;4923682;29;20209;-77
2022/03/08 07:11:26;;;;;;;24.40;18.50;;;-1.30;99.90;;;;;;4935359;29;20194;-78
2022/03/08 07:13:52;;;;;;;27.97;19.07;;;-0.60;99.90;;;;;;4920734;29;20187;-77
2022/03/08 07:16:18;;;;;;;23.77;17.93;;;0.40;99.90;;;;;;4933096;29;20267;-78
2022/03/08 07:18:44;;;;;;;24.00;19.00;;;1.20;99.90;;;;;;4918393;29;20605;-77
2022/03/08 07:21:10;;;;;;;22.27;17.43;;;2.00;99.90;;;;;;4933025;29;20178;-78
2022/03/08 07:23:36;;;;;;;22.27;17.60;;;2.50;99.90;;;;;;4938981;29;20194;-77
2022/03/08 07:26:02;;;;;;;24.13;16.77;;;2.80;99.90;;;;;;4918367;29;20266;-77
2022/03/08 07:28:27;;;;;;;22.97;15.40;;;3.30;99.90;;;;;;4916476;29;20497;-76
2022/03/08 07:30:53;;;;;;;21.20;16.47;;;3.70;99.90;;;;;;4916472;29;20179;-77
2022/03/08 07:33:19;;;;;;;23.17;16.07;;;4.20;99.90;;;;;;4915773;29;20266;-76
2022/03/08 07:35:45;;;;;;;16.20;14.17;;;4.40;98.90;;;;;;4916142;29;20230;-78
2022/03/08 07:38:11;;;;;;;14.83;13.33;;;4.60;97.10;;;;;;4915363;29;20215;-77
2022/03/08 07:40:37;;;;;;;15.77;13.07;;;4.80;94.50;;;;;;4916124;29;20179;-77
2022/03/08 07:43:02;;;;;;;15.47;13.83;;;5.00;93.10;;;;;;4916381;29;20218;-78
2022/03/08 07:45:29;;;;;;;15.50;13.90;;;5.20;92.90;;;;;;4915607;29;20332;-77
2022/03/08 07:47:55;;;;;;;14.70;12.93;;;5.20;90.80;;;;;;4916268;29;20190;-76
2022/03/08 07:50:22;;;;;;;15.40;13.93;;;5.50;90.40;;;;;;4931627;29;20581;-77
2022/03/08 07:52:49;;;;;;;15.43;13.27;;;5.40;90.00;;;;;;4935283;29;20191;-77
2022/03/08 07:55:15;;;;;;;14.80;13.10;;;5.70;88.60;;;;;;4934208;29;20202;-76
2022/03/08 07:57:41;;;;;;;13.67;12.37;;;6.00;86.70;;;;;;4936169;29;20184;-77
2022/03/08 08:00:07;;;;;;;13.13;11.77;;;6.00;84.80;;;;;;4934775;29;20277;-76
2022/03/08 08:02:33;;;;;;;12.13;10.97;;;6.00;84.10;;;;;;4935730;29;20288;-76
2022/03/08 08:04:59;;;;;;;12.97;11.67;;;5.90;83.80;;;;;;4916215;29;20278;-76
2022/03/08 08:07:25;;;;;;;13.63;12.23;;;6.00;82.60;;;;;;4916188;29;20639;-76
2022/03/08 08:09:51;;;;;;;14.60;11.73;;;6.50;81.20;;;;;;4918420;29;20305;-76
2022/03/08 08:12:17;;;;;;;12.83;11.40;;;6.70;80.00;;;;;;4916463;29;20187;-77
2022/03/08 08:14:43;;;;;;;12.77;11.53;;;7.00;78.60;;;;;;4915735;29;20211;-77
2022/03/08 08:17:09;;;;;;;12.30;10.40;;;7.20;77.00;;;;;;4917125;29;20191;-77
2022/03/08 08:19:35;;;;;;;12.77;11.37;;;7.00;75.50;;;;;;4934036;29;20182;-77
2022/03/08 08:22:00;;;;;;;11.60;10.47;;;7.10;76.40;;;;;;4934509;29;20186;-76
2022/03/08 08:24:26;;;;;;;11.67;10.57;;;7.40;74.60;;;;;;4934129;29;20214;-77
2022/03/08 08:26:52;;;;;;;15.40;10.90;;;7.40;74.50;;;;;;4916981;29;20194;-77
2022/03/08 08:29:18;;;;;;;10.97;9.80;;;7.20;74.90;;;;;;4916437;29;20207;-77
2022/03/08 08:31:43;;;;;;;11.23;10.23;;;7.30;74.40;;;;;;4918703;29;20188;-78
2022/03/08 08:34:09;;;;;;;10.77;9.70;;;7.70;74.30;;;;;;4936582;29;20246;-78
2022/03/08 08:36:35;;;;;;;9.80;8.87;;;8.20;72.10;;;;;;4931884;29;20622;-77
2022/03/08 08:39:01;;;;;;;9.73;8.83;;;8.00;70.80;;;;;;4915388;29;20186;-76
2022/03/08 08:41:26;;;;;;;11.47;8.33;;;7.40;70.90;;;;;;4918572;29;20606;-77
2022/03/08 08:43:52;;;;;;;10.70;9.70;;;7.30;71.70;;;;;;4914846;29;20187;-76
2022/03/08 08:46:18;;;;;;;9.23;8.23;;;7.30;72.40;;;;;;4914005;29;20211;-77
2022/03/08 08:48:44;;;;;;;9.80;8.80;;;7.70;71.00;;;;;;4914316;29;20234;-77
2022/03/08 08:51:10;;;;;;;9.53;8.57;;;7.60;70.70;;;;;;4913753;29;20187;-76
2022/03/08 08:53:35;;;;;;;7.20;6.60;;;7.60;69.90;;;;;;4915125;29;20183;-77
2022/03/08 08:56:02;;;;;;;9.57;8.00;;;7.60;67.90;;;;;;4916999;29;20293;-76
2022/03/08 08:58:29;;;;;;;6.80;6.07;;;7.60;67.10;;;;;;4920857;29;20199;-77
2022/03/08 09:00:55;;;;;;;7.23;6.73;;;7.40;65.70;;;;;;4914442;29;20190;-77
2022/03/08 09:03:20;;;;;;;7.50;6.97;;;7.10;66.20;;;;;;4914205;29;20265;-77
2022/03/08 09:05:47;;;;;;;8.07;7.27;;;6.80;66.00;;;;;;4914672;29;20211;-77
2022/03/08 09:08:23;;;;;;;7.00;6.27;;;6.90;65.50;;;;;;4914807;29;20198;-76
2022/03/08 09:10:50;;;;;;;8.50;7.70;;;6.70;65.50;;;;;;4920930;29;20615;-76
2022/03/08 09:13:16;;;;;;;8.37;6.37;;;6.90;66.10;;;;;;4934322;29;20190;-76
2022/03/08 09:15:41;;;;;;;8.10;7.43;;;7.20;65.50;;;;;;4934250;29;20229;-78
2022/03/08 09:18:09;;;;;;;8.37;7.63;;;7.60;64.60;;;;;;4920107;29;20238;-78
2022/03/08 09:20:35;;;;;;;7.83;7.17;;;7.70;63.50;;;;;;4914081;29;20195;-77
2022/03/08 09:23:01;;;;;;;7.70;6.97;;;8.00;64.10;;;;;;4914069;29;20682;-78
2022/03/08 09:25:27;;;;;;;7.40;6.83;;;8.10;62.00;;;;;;4911335;29;20698;-77
2022/03/08 09:27:53;;;;;;;8.33;7.63;;;8.30;60.00;;;;;;4914452;29;20194;-77
2022/03/08 09:30:19;;;;;;;7.70;7.10;;;8.20;59.90;;;;;;4914138;29;20305;-77
2022/03/08 09:32:45;;;;;;;7.07;6.47;;;7.70;59.50;;;;;;4914684;29;20274;-77
2022/03/08 09:35:10;;;;;;;7.37;6.77;;;7.70;60.20;;;;;;4914016;29;20203;-78
2022/03/08 09:37:36;;;;;;;6.67;6.27;;;7.90;59.80;;;;;;4934973;29;20187;-79
2022/03/08 09:40:06;;;;;;;8.23;7.63;;;8.10;59.30;;;;;;4928285;29;20273;-79
2022/03/08 09:42:32;;;;;;;6.70;6.20;;;8.40;59.00;;;;;;4934731;29;20223;-78
2022/03/08 09:44:58;;;;;;;8.33;7.03;;;8.60;58.00;;;;;;4934786;29;20725;-80
2022/03/08 09:47:24;;;;;;;7.63;7.03;;;8.70;57.20;;;;;;4936679;29;20179;-77
2022/03/08 09:49:50;;;;;;;8.10;7.40;;;9.20;56.50;;;;;;4938017;29;20690;-77
2022/03/08 09:52:18;;;;;;;8.67;7.43;;;9.20;55.50;;;;;;4934646;29;20178;-78
2022/03/08 09:54:45;;;;;;;9.10;8.30;;;9.30;54.50;;;;;;4925688;29;20206;-77
2022/03/08 09:57:13;;;;;;;7.67;7.23;;;9.00;55.00;;;;;;4908327;29;20199;-77
2022/03/08 09:59:38;;;;;;;8.07;7.57;;;9.20;54.00;;;;;;4899338;29;20187;-77
2022/03/08 10:02:04;;;;;;;7.50;7.00;;;9.20;53.40;;;;;;4897900;29;20254;-78
2022/03/08 10:04:30;;;;;;;8.83;8.30;;;9.30;53.00;;;;;;4896225;29;20684;-77
2022/03/08 10:06:57;;;;;;;9.57;8.43;;;9.40;52.00;;;;;;4899105;29;20244;-78
2022/03/08 10:09:24;;;;;;;7.77;7.23;;;9.40;51.80;;;;;;4916350;29;20211;-79
2022/03/08 10:11:53;;;;;;;9.07;8.47;;;9.20;52.10;;;;;;4914440;29;20208;-78
2022/03/08 10:14:40;;;;;;;7.67;7.17;;;9.40;52.10;;;;;;4926864;23;20219;-73
2022/03/08 10:17:07;;;;;;;10.03;9.03;;;9.50;51.40;;;;;;4915933;29;20242;-74
2022/03/08 10:19:49;;;;;;;7.23;6.63;;;9.80;51.30;;;;;;4917306;29;20183;-74
2022/03/08 10:22:35;;;;;;;6.57;6.03;;;10.30;49.80;;;;;;4916291;29;20178;-76
2022/03/08 10:25:16;;;;;;;6.80;6.30;;;10.10;49.40;;;;;;4912027;29;20214;-75
2022/03/08 10:28:04;;;;;;;7.77;7.20;;;10.30;49.30;;;;;;4898174;29;20212;-76
2022/03/08 10:30:42;;;;;;;7.17;6.57;;;11.00;49.10;;;;;;4898931;29;20223;-76
2022/03/08 10:33:09;;;;;;;7.80;7.10;;;11.60;47.20;;;;;;4898444;29;20176;-74
2022/03/08 10:35:40;;;;;;;7.33;6.77;;;11.80;46.60;;;;;;4890326;29;20395;-74
2022/03/08 10:38:09;;;;;;;7.07;6.33;;;12.20;45.70;;;;;;4895701;29;20866;-74
2022/03/08 10:40:35;;;;;;;7.43;6.30;;;12.30;44.90;;;;;;4897576;29;20188;-74
2022/03/08 10:43:03;;;;;;;6.97;6.37;;;11.80;43.80;;;;;;4898893;29;20192;-74
2022/03/08 10:45:31;;;;;;;7.37;6.63;;;12.00;44.40;;;;;;4897706;29;20290;-74
2022/03/08 10:47:57;;;;;;;7.30;6.60;;;12.10;43.80;;;;;;4891261;29;20220;-76
2022/03/08 10:50:28;;;;;;;7.67;6.97;;;12.20;43.50;;;;;;4879976;29;20233;-76
2022/03/08 10:52:56;;;;;;;7.37;6.77;;;12.30;43.30;;;;;;4897793;29;20239;-74
2022/03/08 10:55:28;;;;;;;7.50;6.80;;;12.50;42.70;;;;;;4898673;29;20199;-74
2022/03/08 10:58:01;;;;;;;7.17;6.57;;;12.90;41.60;;;;;;4898006;29;20183;-76
2022/03/08 11:00:32;;;;;;;7.93;6.23;;;13.00;41.30;;;;;;4896863;29;20931;-74
2022/03/08 11:03:05;;;;;;;6.47;5.90;;;13.30;40.40;;;;;;4900653;29;20207;-75
2022/03/08 11:05:36;;;;;;;7.13;6.43;;;13.20;41.30;;;;;;4900558;29;20592;-74
2022/03/08 11:08:02;;;;;;;8.10;7.50;;;13.10;40.80;;;;;;4898853;29;20199;-75
2022/03/08 11:10:30;;;;;;;7.43;6.73;;;12.80;41.60;;;;;;4897209;29;20239;-74
2022/03/08 11:12:57;;;;;;;7.27;6.57;;;13.20;41.00;;;;;;4897502;29;20212;-73
2022/03/08 11:15:24;;;;;;;8.03;7.23;;;13.50;40.30;;;;;;4897984;29;20242;-74
2022/03/08 11:17:53;;;;;;;6.07;5.70;;;13.40;39.40;;;;;;4897371;29;20635;-74
2022/03/08 11:20:21;;;;;;;5.93;5.53;;;12.70;39.40;;;;;;4897763;29;20183;-74
2022/03/08 11:22:48;;;;;;;7.90;7.27;;;12.20;40.60;;;;;;4898155;29;20195;-75
2022/03/08 11:25:16;;;;;;;8.90;8.00;;;12.70;40.70;;;;;;4898022;29;20703;-75
2022/03/08 11:27:45;;;;;;;9.47;7.83;;;13.10;39.50;;;;;;4897270;29;20199;-75
2022/03/08 11:30:18;;;;;;;7.40;6.80;;;13.20;39.80;;;;;;4897707;29;20222;-75
2022/03/08 11:32:58;;;;;;;8.03;7.43;;;13.80;39.30;;;;;;4898517;29;20274;-75
2022/03/08 11:35:57;;;;;;;10.63;7.27;;;14.20;38.10;;;;;;4897346;29;20219;-75
2022/03/08 11:38:23;;;;;;;7.73;7.13;;;14.10;37.90;;;;;;4898222;29;20191;-75
2022/03/08 11:40:50;;;;;;;8.07;7.40;;;14.40;37.20;;;;;;4897291;29;20556;-74
2022/03/08 11:43:17;;;;;;;7.83;7.23;;;13.80;37.80;;;;;;4898004;29;20188;-75
2022/03/08 11:45:43;;;;;;;8.60;7.97;;;14.10;38.10;;;;;;4897704;29;20255;-75
2022/03/08 11:48:09;;;;;;;8.50;7.77;;;14.00;37.40;;;;;;4890912;29;20611;-75
2022/03/08 11:50:40;;;;;;;8.20;7.50;;;13.80;37.60;;;;;;4877977;29;20231;-75
2022/03/08 11:53:11;;;;;;;9.77;8.83;;;14.10;37.30;;;;;;4877878;29;20196;-74
2022/03/08 11:55:43;;;;;;;9.37;8.67;;;14.30;36.60;;;;;;4879113;29;20213;-75
2022/03/08 11:58:20;;;;;;;11.03;10.13;;;15.20;36.10;;;;;;4878334;29;20630;-76
2022/03/08 12:00:52;;;;;;;10.00;9.30;;;14.90;35.90;;;;;;4879106;29;20196;-74
2022/03/08 12:03:21;;;;;;;13.10;9.97;;;15.20;35.10;;;;;;4879172;29;20301;-74
2022/03/08 12:06:01;;;;;;;10.53;9.93;;;14.90;35.10;;;;;;4878782;29;20200;-74
2022/03/08 12:08:27;;;;;;;11.57;10.67;;;14.30;35.50;;;;;;4878363;29;20187;-76
2022/03/08 12:10:58;;;;;;;10.80;9.90;;;15.00;36.10;;;;;;4878220;29;20595;-74
2022/03/08 12:13:35;;;;;;;10.40;9.73;;;15.30;34.30;;;;;;4878636;29;20212;-74
2022/03/08 12:16:10;;;;;;;11.23;10.43;;;15.10;34.30;;;;;;4878551;29;20219;-75
2022/03/08 12:18:48;;;;;;;11.37;10.67;;;14.80;35.00;;;;;;4878438;29;20267;-75
2022/03/08 12:21:17;;;;;;;10.40;9.70;;;15.20;34.90;;;;;;4878479;29;20649;-75
2022/03/08 12:23:55;;;;;;;11.80;11.00;;;15.60;33.50;;;;;;4878757;29;20558;-75
2022/03/08 12:26:26;;;;;;;12.33;11.53;;;15.30;33.40;;;;;;4877161;29;20208;-75
2022/03/08 12:29:07;;;;;;;12.73;11.53;;;15.60;33.30;;;;;;4879063;29;20212;-75
2022/03/08 12:31:56;;;;;;;12.33;11.53;;;15.70;34.10;;;;;;4892660;29;20199;-76
2022/03/08 12:34:39;;;;;;;13.33;12.43;;;16.50;32.50;;;;;;4859491;29;20192;-75
2022/03/08 12:37:06;;;;;;;11.17;10.47;;;17.30;32.00;;;;;;4885296;29;20191;-73
2022/03/08 12:39:54;;;;;;;11.23;10.53;;;17.50;32.40;;;;;;4896952;29;20699;-74
2022/03/08 12:42:24;;;;;;;11.43;10.67;;;16.90;32.70;;;;;;4896369;29;20235;-72
2022/03/08 12:44:50;;;;;;;10.77;9.97;;;17.00;32.90;;;;;;4885723;29;20208;-74
2022/03/08 12:47:17;;;;;;;8.90;8.30;;;16.70;32.00;;;;;;4875798;29;20191;-74
2022/03/08 12:49:45;;;;;;;9.83;9.23;;;17.40;31.00;;;;;;4877390;29;20821;-74
2022/03/08 12:52:13;;;;;;;8.30;7.70;;;17.10;30.60;;;;;;4894368;29;20199;-74
2022/03/08 12:54:41;;;;;;;8.30;7.80;;;18.10;30.00;;;;;;4895855;29;20204;-74
2022/03/08 12:57:10;;;;;;;7.27;6.73;;;18.10;30.00;;;;;;4895204;29;20188;-75
2022/03/08 12:59:52;;;;;;;7.47;6.87;;;18.00;29.90;;;;;;4896568;29;20184;-75
2022/03/08 13:02:21;;;;;;;7.00;6.50;;;18.80;28.90;;;;;;4886028;29;20192;-74
2022/03/08 13:04:48;;;;;;;16.03;9.73;;;19.10;28.40;;;;;;4892075;29;20211;-75
2022/03/08 13:07:17;;;;;;;7.33;6.83;;;18.70;28.60;;;;;;4895092;29;20195;-75
2022/03/08 13:09:53;;;;;;;6.37;5.97;;;18.20;29.10;;;;;;4891889;29;20203;-75
2022/03/08 13:12:21;;;;;;;8.17;7.17;;;18.00;29.20;;;;;;4909038;29;20184;-75
2022/03/08 13:15:06;;;;;;;7.80;7.10;;;18.00;29.40;;;;;;4895523;29;20214;-76
2022/03/08 13:17:32;;;;;;;10.10;9.10;;;17.90;29.10;;;;;;4884453;29;20291;-76
2022/03/08 13:19:58;;;;;;;7.57;6.83;;;18.10;28.90;;;;;;4877391;29;20184;-75
2022/03/08 13:22:24;;;;;;;8.33;7.57;;;17.90;29.30;;;;;;4876949;29;20201;-74
2022/03/08 13:25:08;;;;;;;8.10;7.30;;;18.70;29.40;;;;;;4877762;29;20640;-74
2022/03/08 13:28:04;;;;;;;5.47;4.97;;;19.80;28.10;;;;;;4877128;29;20196;-75
2022/03/08 13:30:31;;;;;;;7.23;6.50;;;18.70;27.60;;;;;;4864118;29;20260;-74
2022/03/08 13:33:28;;;;;;;7.33;6.73;;;17.50;28.90;;;;;;4876342;29;20188;-75
2022/03/08 13:36:01;;;;;;;7.93;7.23;;;17.50;28.90;;;;;;4877321;29;20696;-75
2022/03/08 13:38:39;;;;;;;7.07;6.53;;;16.90;29.50;;;;;;4877063;29;20239;-74
2022/03/08 13:41:11;;;;;;;12.63;8.17;;;17.30;29.20;;;;;;4877351;29;20244;-74
2022/03/08 13:43:39;;;;;;;7.83;7.13;;;16.80;29.90;;;;;;4886547;29;20271;-74
2022/03/08 13:46:09;;;;;;;8.77;8.10;;;16.60;30.00;;;;;;4894536;29;20207;-74
2022/03/08 13:48:43;;;;;;;8.60;7.80;;;15.50;31.50;;;;;;4895602;29;20270;-73
2022/03/08 13:51:09;;;;;;;9.20;8.50;;;15.20;31.90;;;;;;4889722;29;20700;-75
2022/03/08 13:53:36;;;;;;;11.63;10.70;;;14.90;32.50;;;;;;4877273;29;20637;-75
2022/03/08 13:56:03;;;;;;;12.23;11.30;;;14.50;33.60;;;;;;4877230;29;20208;-74
2022/03/08 13:58:41;;;;;;;12.80;11.90;;;14.40;33.70;;;;;;4889093;29;20180;-75
2022/03/08 14:01:08;;;;;;;9.97;9.27;;;14.60;33.30;;;;;;4894705;29;20562;-75
2022/03/08 14:03:40;;;;;;;12.77;11.80;;;14.40;32.60;;;;;;4895865;29;20189;-75
2022/03/08 14:06:10;;;;;;;10.93;10.20;;;14.90;32.80;;;;;;4895872;29;20219;-75
2022/03/08 14:08:44;;;;;;;11.90;11.10;;;14.70;33.50;;;;;;4895376;29;20191;-74
2022/03/08 14:11:16;;;;;;;13.57;12.57;;;14.30;32.80;;;;;;4894988;29;20184;-74
2022/03/08 14:13:56;;;;;;;16.80;15.50;;;13.10;34.20;;;;;;4886623;29;20179;-74
2022/03/08 14:16:42;;;;;;;15.27;14.43;;;12.60;35.70;;;;;;4909773;29;20223;-74
2022/03/08 14:19:09;;;;;;;16.73;15.53;;;13.20;35.20;;;;;;4895356;29;20199;-74
2022/03/08 14:21:37;;;;;;;16.83;15.73;;;12.70;35.80;;;;;;4895553;29;20637;-74
2022/03/08 14:24:20;;;;;;;17.10;15.90;;;12.80;36.20;;;;;;4894203;29;20243;-74
2022/03/08 14:27:07;;;;;;;14.07;12.97;;;12.60;36.70;;;;;;4895139;29;20188;-74
2022/03/08 14:29:41;;;;;;;13.10;12.00;;;12.00;37.90;;;;;;4895398;29;20216;-74
2022/03/08 14:32:09;;;;;;;14.10;13.10;;;12.20;38.00;;;;;;4895705;29;20192;-74
2022/03/08 14:34:37;;;;;;;13.93;12.97;;;12.30;38.70;;;;;;4894534;29;20725;-74
2022/03/08 14:37:04;;;;;;;15.10;14.00;;;12.30;37.70;;;;;;4895086;29;20191;-74
2022/03/08 14:39:30;;;;;;;15.20;14.00;;;12.10;38.00;;;;;;4886016;29;20274;-74
2022/03/08 14:42:08;;;;;;;14.40;13.30;;;11.80;37.90;;;;;;4879850;29;20271;-74
2022/03/08 14:44:42;;;;;;;13.80;12.90;;;11.40;38.90;;;;;;4882749;29;20192;-75
2022/03/08 14:47:11;;;;;;;14.03;12.77;;;11.60;38.70;;;;;;4884497;29;20224;-75
2022/03/08 14:49:40;;;;;;;13.80;12.70;;;11.90;38.80;;;;;;4877565;29;20204;-75
2022/03/08 14:52:27;;;;;;;15.83;14.63;;;12.70;37.80;;;;;;4891036;29;20180;-74
2022/03/08 14:54:55;;;;;;;16.37;15.27;;;13.50;35.80;;;;;;4892627;29;20237;-75
2022/03/08 14:57:21;;;;;;;15.97;14.90;;;13.60;35.00;;;;;;4896634;29;20271;-75
2022/03/08 14:59:48;;;;;;;16.43;15.30;;;14.60;34.10;;;;;;4898914;29;20191;-75
2022/03/08 15:02:15;;;;;;;15.63;14.47;;;14.40;33.70;;;;;;4897465;29;20210;-75
2022/03/08 15:04:41;;;;;;;14.27;13.07;;;14.60;33.60;;;;;;4898286;29;20302;-74
2022/03/08 15:07:07;;;;;;;16.63;15.07;;;13.80;33.40;;;;;;4898279;29;20287;-75
2022/03/08 15:09:33;;;;;;;15.80;14.50;;;13.20;34.80;;;;;;4913052;29;20773;-74
2022/03/08 15:11:59;;;;;;;16.43;15.13;;;12.70;36.40;;;;;;4898403;29;20196;-74
2022/03/08 15:14:25;;;;;;;16.43;15.33;;;11.80;37.30;;;;;;4877749;29;20192;-74
2022/03/08 15:16:51;;;;;;;14.03;12.87;;;11.20;38.90;;;;;;4882784;29;20656;-74
2022/03/08 15:19:17;;;;;;;12.93;12.03;;;10.80;38.50;;;;;;4888303;29;20267;-75
2022/03/08 15:21:46;;;;;;;12.23;11.33;;;10.50;38.00;;;;;;4890515;29;20195;-74
2022/03/08 15:24:12;;;;;;;14.40;13.20;;;10.30;38.30;;;;;;4896791;29;20216;-74
2022/03/08 15:26:38;;;;;;;12.90;11.80;;;10.20;38.90;;;;;;4899326;29;20203;-74
2022/03/08 15:29:05;;;;;;;12.00;11.07;;;10.10;39.00;;;;;;4912027;29;20222;-75
2022/03/08 15:31:31;;;;;;;11.83;10.97;;;10.00;39.10;;;;;;4897760;29;20183;-74
2022/03/08 15:33:57;;;;;;;10.93;9.93;;;10.00;39.50;;;;;;4897242;29;20332;-75
2022/03/08 15:36:24;;;;;;;12.00;11.00;;;10.00;39.50;;;;;;4896539;29;20207;-75
2022/03/08 15:38:52;;;;;;;10.83;10.03;;;9.80;40.00;;;;;;4887635;29;20546;-74
2022/03/08 15:41:19;;;;;;;11.20;10.30;;;9.80;41.10;;;;;;4879165;29;20191;-74
2022/03/08 15:43:46;;;;;;;10.27;9.27;;;10.10;42.30;;;;;;4877710;29;20188;-74
2022/03/08 15:46:15;;;;;;;12.80;9.37;;;10.40;41.00;;;;;;4878651;29;20216;-74
2022/03/08 15:48:40;;;;;;;10.13;9.40;;;10.20;40.90;;;;;;4878555;29;20188;-73
2022/03/08 15:51:06;;;;;;;10.90;10.00;;;10.20;40.50;;;;;;4877997;29;20203;-73
2022/03/08 15:53:32;;;;;;;11.50;10.30;;;10.10;40.10;;;;;;4895021;29;20184;-74
2022/03/08 15:55:59;;;;;;;11.30;10.30;;;10.00;40.70;;;;;;4896336;29;20207;-73
2022/03/08 15:58:24;;;;;;;11.70;9.40;;;9.90;40.70;;;;;;4897056;29;20196;-74
2022/03/08 16:00:51;;;;;;;10.00;9.20;;;9.80;41.20;;;;;;4897930;29;20593;-74
2022/03/08 16:03:17;;;;;;;10.03;9.33;;;9.80;41.10;;;;;;4893892;29;20699;-74
2022/03/08 16:05:43;;;;;;;10.67;9.87;;;10.00;40.60;;;;;;4903058;29;20211;-74
2022/03/08 16:08:08;;;;;;;10.83;9.83;;;10.20;40.10;;;;;;4892999;29;20199;-74
2022/03/08 16:10:34;;;;;;;10.80;9.77;;;10.60;40.10;;;;;;4895178;29;20207;-73
2022/03/08 16:13:00;;;;;;;12.03;10.13;;;11.00;39.10;;;;;;4884973;29;20244;-74
2022/03/08 16:15:26;;;;;;;10.63;9.57;;;10.90;39.80;;;;;;4902576;23;20232;-76
2022/03/08 16:17:52;;;;;;;11.67;10.77;;;10.60;39.60;;;;;;4911361;29;20222;-76
2022/03/08 16:20:18;;;;;;;10.60;9.70;;;10.30;40.20;;;;;;4910894;29;20202;-77
2022/03/08 16:22:44;;;;;;;12.23;9.23;;;10.30;41.30;;;;;;4913866;29;20191;-77
2022/03/08 16:25:10;;;;;;;10.87;9.90;;;10.50;40.50;;;;;;4909605;29;20183;-76
2022/03/08 16:27:36;;;;;;;10.60;9.57;;;10.70;39.80;;;;;;4914707;29;20221;-76
2022/03/08 16:30:04;;;;;;;10.60;9.73;;;10.80;39.10;;;;;;4916415;29;20211;-76
2022/03/08 16:32:30;;;;;;;11.17;10.30;;;11.30;38.40;;;;;;4915291;29;20218;-77
2022/03/08 16:34:56;;;;;;;11.43;10.43;;;11.20;38.60;;;;;;4916232;29;20190;-77
2022/03/08 16:37:22;;;;;;;9.30;8.70;;;11.10;38.60;;;;;;4917326;29;20578;-77
2022/03/08 16:39:48;;;;;;;10.57;9.63;;;10.70;39.20;;;;;;4912048;29;20202;-78
2022/03/08 16:42:14;;;;;;;9.97;9.20;;;10.30;40.20;;;;;;4919197;29;20194;-77
2022/03/08 16:44:44;;;;;;;10.10;9.33;;;9.90;41.30;;;;;;4916056;29;20230;-77